CheckWX is a tool to help pilots better visualize weather data.  It is not intended as a substitute for an official pre-flight weather briefing.

19:57:18 UTC

KIND METAR
Indianapolis International Airport
Indianapolis, Indiana, USA
Current

1 hour ago

KIND 261854Z 00000KT 10SM SCT050 BKN190 26/17 A3003 RMK AO2 SLP164 T02610167 $
Observed
May-26 @ 18:54 UTC
Visibility
10 SM
Flight Rules
VFR
Cloud Levels
  • Scattered at 5,000' AGL
  • Broken at 19,000' AGL
Temperature
26°C / 79°F
Dewpoint
17°C / 63°F
Humidity
58%
Altimeter
30.03" Hg
Pressure
1016.92 hPa
Previous

2 hours ago

KIND 261754Z 07003KT 10SM SCT060 BKN240 26/17 A3005 RMK AO2 SLP168 T02560172 10256 20200 58008 $
Observed
May-26 @ 17:54 UTC
Wind
  • 070° at 3 KTS
Visibility
10 SM
Flight Rules
VFR
Cloud Levels
  • Scattered at 6,000' AGL
  • Broken at 24,000' AGL
Temperature
26°C / 79°F
Dewpoint
17°C / 63°F
Humidity
58%
Altimeter
30.05" Hg
Pressure
1017.62 hPa
Previous

3 hours ago

KIND 261654Z 30003KT 10SM SCT060 BKN240 25/16 A3007 RMK AO2 SLP175 T02500161 $
Observed
May-26 @ 16:54 UTC
Wind
  • 300° at 3 KTS
Visibility
10 SM
Flight Rules
VFR
Cloud Levels
  • Scattered at 6,000' AGL
  • Broken at 24,000' AGL
Temperature
25°C / 77°F
Dewpoint
16°C / 61°F
Humidity
57%
Altimeter
30.07" Hg
Pressure
1018.32 hPa